createdAt,value
2023-05-14T00:04:09.353Z,12.30
2023-05-14T00:13:58.962Z,12.20
2023-05-14T00:26:16.287Z,12.20
2023-05-14T00:36:06.195Z,12.30
2023-05-14T00:38:33.210Z,12.30
2023-05-14T00:41:00.159Z,12.30
2023-05-14T00:45:56.123Z,12.40
2023-05-14T00:50:51.483Z,12.60
2023-05-14T00:53:19.829Z,12.60
2023-05-14T00:55:49.198Z,12.60
2023-05-14T01:06:08.980Z,12.60
2023-05-14T01:09:06.768Z,12.60
2023-05-14T01:12:20.980Z,12.60
2023-05-14T01:15:12.648Z,12.60
2023-05-14T01:17:49.170Z,12.80
2023-05-14T01:20:16.787Z,12.50
2023-05-14T01:22:43.845Z,12.50
2023-05-14T01:25:11.083Z,12.40
2023-05-14T01:27:59.435Z,12.50
2023-05-14T01:30:41.419Z,12.40
2023-05-14T01:33:14.092Z,12.50
2023-05-14T01:35:41.667Z,12.40
2023-05-14T01:38:12.656Z,12.40
2023-05-14T01:40:40.052Z,12.40
2023-05-14T01:43:07.157Z,12.50
2023-05-14T01:45:36.687Z,12.30
2023-05-14T01:48:05.761Z,12.40
2023-05-14T01:50:32.841Z,12.40
2023-05-14T01:57:55.022Z,12.30
2023-05-14T02:00:26.234Z,12.40
2023-05-14T02:02:53.539Z,12.40
2023-05-14T02:07:48.451Z,12.40
2023-05-14T02:10:15.650Z,12.30
2023-05-14T02:12:42.721Z,12.30
2023-05-14T02:15:11.183Z,12.30
2023-05-14T02:17:38.381Z,12.40
2023-05-14T02:20:06.495Z,12.30
2023-05-14T02:27:28.594Z,12.40
2023-05-14T02:32:28.909Z,12.30
2023-05-14T02:34:56.054Z,12.30
2023-05-14T02:39:50.488Z,12.20
2023-05-14T02:42:17.481Z,12.10
2023-05-14T02:47:12.043Z,12.10
2023-05-14T02:52:07.485Z,12.10
2023-05-14T02:54:34.727Z,12.10
2023-05-14T02:57:01.819Z,12.00
2023-05-14T03:01:57.006Z,12.10
2023-05-14T03:04:24.418Z,11.90
2023-05-14T03:09:18.826Z,12.00
2023-05-14T03:11:45.990Z,12.10
2023-05-14T03:14:12.942Z,11.90
2023-05-14T03:16:42.405Z,11.80
2023-05-14T03:21:37.436Z,11.70
2023-05-14T03:24:04.614Z,11.90
2023-05-14T03:31:26.871Z,11.60
2023-05-14T03:33:54.055Z,11.70
2023-05-14T03:36:21.041Z,11.50
2023-05-14T03:38:48.049Z,11.40
2023-05-14T03:41:15.070Z,11.40
2023-05-14T03:46:09.681Z,11.40
2023-05-14T03:53:31.728Z,11.20
2023-05-14T04:00:54.314Z,11.20
2023-05-14T04:03:21.619Z,11.20
2023-05-14T04:05:53.173Z,11.30
2023-05-14T04:08:20.299Z,11.10
2023-05-14T04:10:47.642Z,11.10
2023-05-14T04:13:17.918Z,11.10
2023-05-14T04:15:45.706Z,11.00
2023-05-14T04:25:36.329Z,10.90
2023-05-14T04:55:12.165Z,11.10
2023-05-14T05:00:08.255Z,11.10
2023-05-14T05:10:00.862Z,11.20
2023-05-14T05:14:58.136Z,11.30
2023-05-14T05:17:25.895Z,11.30
2023-05-14T05:24:50.891Z,11.50
2023-05-14T05:29:46.447Z,11.50
2023-05-14T05:34:41.792Z,11.60
2023-05-14T05:37:12.788Z,11.80
2023-05-14T05:42:08.794Z,11.70
2023-05-14T05:44:42.557Z,11.80
2023-05-14T05:57:00.851Z,11.80
2023-05-14T05:59:35.445Z,12.00
2023-05-14T06:11:52.642Z,12.30
2023-05-14T06:29:11.269Z,12.40
2023-05-14T06:31:39.320Z,12.50
2023-05-14T06:53:56.188Z,12.90
2023-05-14T07:08:41.150Z,13.30
2023-05-14T07:23:25.885Z,14.10
2023-05-14T07:35:42.542Z,14.50
2023-05-14T07:40:36.946Z,14.90
2023-05-14T07:52:54.347Z,14.90
2023-05-14T07:55:21.462Z,15.10
2023-05-14T08:00:17.189Z,15.70
2023-05-14T08:02:45.290Z,15.80
2023-05-14T08:05:12.709Z,15.90
2023-05-14T08:10:08.133Z,16.00
2023-05-14T08:12:35.787Z,15.70
2023-05-14T08:15:03.535Z,15.90
2023-05-14T08:17:30.696Z,16.20
2023-05-14T08:19:57.750Z,16.20
2023-05-14T08:22:24.743Z,16.40
2023-05-14T08:24:51.893Z,16.50
2023-05-14T08:27:19.008Z,16.30
2023-05-14T08:29:47.270Z,16.60
2023-05-14T08:32:22.568Z,16.70
2023-05-14T08:34:51.036Z,16.50
2023-05-14T08:37:18.241Z,16.30
2023-05-14T08:39:45.352Z,16.80
2023-05-14T08:42:13.886Z,17.30
2023-05-14T08:44:55.024Z,17.30
2023-05-14T08:47:24.176Z,17.10
2023-05-14T08:50:06.544Z,17.50
2023-05-14T08:52:35.219Z,17.70
2023-05-14T08:55:06.497Z,17.90
2023-05-14T08:57:34.713Z,17.90
2023-05-14T09:00:15.161Z,18.20
2023-05-14T09:02:44.814Z,18.60
2023-05-14T09:05:13.322Z,17.90
2023-05-14T09:07:40.583Z,17.90
2023-05-14T09:10:09.269Z,18.10
2023-05-14T09:12:36.408Z,17.90
2023-05-14T09:15:05.126Z,18.40
2023-05-14T09:17:33.829Z,18.30
2023-05-14T09:20:01.435Z,18.60
2023-05-14T09:22:32.545Z,18.80
2023-05-14T09:25:05.484Z,19.00
2023-05-14T09:27:33.936Z,19.00
2023-05-14T09:30:10.804Z,20.90
2023-05-14T09:32:47.306Z,19.10
2023-05-14T09:35:25.531Z,19.20
2023-05-14T09:37:54.759Z,18.90
2023-05-14T09:40:24.616Z,19.10
2023-05-14T09:42:52.196Z,19.00
2023-05-14T09:45:22.895Z,18.90
2023-05-14T09:50:17.704Z,18.10
2023-05-14T09:52:45.992Z,18.30
2023-05-14T09:55:13.691Z,19.50
2023-05-14T09:57:40.899Z,19.50
2023-05-14T10:00:09.415Z,22.40
2023-05-14T10:02:38.867Z,19.80
2023-05-14T10:05:07.655Z,19.50
2023-05-14T10:07:44.777Z,19.50
2023-05-14T10:10:17.129Z,19.40
2023-05-14T10:12:57.420Z,19.40
2023-05-14T10:15:34.887Z,19.60
2023-05-14T10:18:11.550Z,19.50
2023-05-14T10:20:41.167Z,20.00
2023-05-14T10:23:08.358Z,19.70
2023-05-14T10:25:36.964Z,20.00
2023-05-14T10:30:32.749Z,19.80
2023-05-14T10:33:12.574Z,20.10
2023-05-14T10:36:06.129Z,19.70
2023-05-14T10:38:36.128Z,19.30
2023-05-14T10:41:21.553Z,19.20
2023-05-14T10:43:48.873Z,18.80
2023-05-14T10:46:16.189Z,18.90
2023-05-14T10:48:44.492Z,18.60
2023-05-14T10:51:12.639Z,18.40
2023-05-14T10:53:42.388Z,18.40
2023-05-14T10:56:14.420Z,18.60
2023-05-14T10:58:45.907Z,18.70
2023-05-14T11:01:13.892Z,18.60
2023-05-14T11:03:46.679Z,18.30
2023-05-14T11:06:16.360Z,18.50
2023-05-14T11:08:46.704Z,18.60
2023-05-14T11:11:14.240Z,18.50
2023-05-14T11:13:43.052Z,18.40
2023-05-14T11:18:42.015Z,18.60
2023-05-14T11:21:09.333Z,18.30
2023-05-14T11:23:36.347Z,18.30
2023-05-14T11:26:03.613Z,18.20
2023-05-14T11:28:30.815Z,18.30
2023-05-14T11:30:58.411Z,18.30
2023-05-14T11:33:28.095Z,18.50
2023-05-14T11:35:56.069Z,18.50
2023-05-14T11:38:23.606Z,18.50
2023-05-14T11:40:58.908Z,18.60
2023-05-14T11:43:29.319Z,18.60
2023-05-14T11:45:57.152Z,18.60
2023-05-14T11:50:53.338Z,18.60
2023-05-14T11:53:25.889Z,18.30
2023-05-14T11:55:54.747Z,18.50
2023-05-14T11:58:22.365Z,18.80
2023-05-14T12:00:53.866Z,18.90
2023-05-14T12:03:29.701Z,19.20
2023-05-14T12:06:02.620Z,19.20
2023-05-14T12:08:31.529Z,19.10
2023-05-14T12:11:01.044Z,19.20
2023-05-14T12:13:30.826Z,19.40
2023-05-14T12:16:00.951Z,19.40
2023-05-14T12:18:30.976Z,19.60
2023-05-14T12:21:04.441Z,19.70
2023-05-14T12:23:33.048Z,19.90
2023-05-14T12:26:06.953Z,20.50
2023-05-14T12:28:37.965Z,20.70
2023-05-14T12:36:20.722Z,21.20
2023-05-14T12:38:50.615Z,20.60
2023-05-14T12:41:21.371Z,20.20
2023-05-14T12:46:19.670Z,20.00
2023-05-14T12:51:14.713Z,20.60
2023-05-14T13:03:32.144Z,21.70
2023-05-14T13:13:23.577Z,21.90
2023-05-14T13:15:53.202Z,21.70
2023-05-14T13:20:47.755Z,21.80
2023-05-14T13:23:15.347Z,21.60
2023-05-14T13:30:37.209Z,21.50
2023-05-14T13:40:27.708Z,22.40
2023-05-14T13:57:41.850Z,23.20
2023-05-14T14:00:09.653Z,23.40
2023-05-14T14:10:01.673Z,23.40
2023-05-14T14:29:46.674Z,23.00
2023-05-14T14:34:41.287Z,22.70
2023-05-14T14:59:19.366Z,22.30
2023-05-14T15:16:32.185Z,21.90
2023-05-14T15:18:59.393Z,21.90
2023-05-14T15:21:26.819Z,22.50
2023-05-14T15:23:54.239Z,23.00
2023-05-14T15:28:48.802Z,22.80
2023-05-14T15:31:17.313Z,22.40
2023-05-14T15:33:44.667Z,22.70
2023-05-14T15:36:12.757Z,22.50
2023-05-14T15:38:40.654Z,22.80
2023-05-14T15:41:07.914Z,22.90
2023-05-14T15:43:35.027Z,23.10
2023-05-14T15:46:02.052Z,23.00
2023-05-14T15:48:32.634Z,22.90
2023-05-14T15:50:59.882Z,23.30
2023-05-14T15:53:27.246Z,23.30
2023-05-14T15:55:54.216Z,23.00
2023-05-14T16:00:49.707Z,23.00
2023-05-14T16:03:18.073Z,23.20
2023-05-14T16:05:45.575Z,23.00
2023-05-14T16:10:40.264Z,23.70
2023-05-14T16:13:07.250Z,23.70
2023-05-14T16:20:31.409Z,23.30
2023-05-14T16:22:58.381Z,23.10
2023-05-14T16:25:25.386Z,23.10
2023-05-14T16:30:19.800Z,23.60
2023-05-14T16:32:49.502Z,23.80
2023-05-14T16:35:17.009Z,22.90
2023-05-14T16:40:12.380Z,23.30
2023-05-14T16:42:39.941Z,23.60
2023-05-14T16:45:07.979Z,23.90
2023-05-14T16:50:03.383Z,24.00
2023-05-14T17:09:44.066Z,23.30
2023-05-14T17:17:08.527Z,22.30
2023-05-14T17:19:35.647Z,22.00
2023-05-14T17:22:05.972Z,18.40
2023-05-14T17:24:33.101Z,21.70
2023-05-14T17:31:55.123Z,22.60
2023-05-14T17:34:22.550Z,22.20
2023-05-14T17:41:44.899Z,21.00
2023-05-14T17:51:50.239Z,20.50
2023-05-14T17:54:17.556Z,20.40
2023-05-14T17:56:44.857Z,20.40
2023-05-14T17:59:12.262Z,20.50
2023-05-14T18:01:39.547Z,20.20
2023-05-14T18:04:06.876Z,19.90
2023-05-14T18:06:34.067Z,19.90
2023-05-14T18:09:01.034Z,20.30
2023-05-14T18:14:01.443Z,19.50
2023-05-14T18:19:00.413Z,19.30
2023-05-14T18:21:27.594Z,19.40
2023-05-14T18:23:54.603Z,19.40
2023-05-14T18:26:24.166Z,19.30
2023-05-14T18:28:51.566Z,19.00
2023-05-14T18:31:18.590Z,19.10
2023-05-14T18:36:13.174Z,19.10
2023-05-14T18:41:08.013Z,18.70
2023-05-14T18:43:34.983Z,18.80
2023-05-14T18:46:02.074Z,18.80
2023-05-14T18:53:25.344Z,18.40
2023-05-14T18:55:52.343Z,18.10
2023-05-14T18:58:19.390Z,17.70
2023-05-14T19:00:46.766Z,17.60
2023-05-14T19:03:14.138Z,17.70
2023-05-14T19:05:41.238Z,17.40
2023-05-14T19:10:35.811Z,17.30
2023-05-14T19:15:33.800Z,17.20
2023-05-14T19:18:01.630Z,17.10
2023-05-14T19:20:28.764Z,17.10
2023-05-14T19:22:55.870Z,17.10
2023-05-14T19:25:23.121Z,16.90
2023-05-14T19:27:51.283Z,16.90
2023-05-14T19:35:16.561Z,16.80
2023-05-14T19:37:43.653Z,16.80
2023-05-14T19:40:11.354Z,16.70
2023-05-14T19:42:38.447Z,16.60
2023-05-14T19:45:06.811Z,16.60
2023-05-14T19:47:34.504Z,16.60
2023-05-14T19:52:29.105Z,16.50
2023-05-14T19:54:56.321Z,16.60
2023-05-14T20:22:04.205Z,16.00
2023-05-14T20:41:45.711Z,15.80
2023-05-14T20:44:12.838Z,15.80
2023-05-14T20:46:40.135Z,15.70
2023-05-14T20:49:07.539Z,15.60
2023-05-14T20:51:34.509Z,15.60
2023-05-14T20:54:02.580Z,15.50
2023-05-14T20:56:30.457Z,15.50
2023-05-14T20:58:57.530Z,15.40
2023-05-14T21:01:24.631Z,15.30
2023-05-14T21:03:51.859Z,15.30
2023-05-14T21:06:18.925Z,15.20
2023-05-14T21:08:45.960Z,15.10
2023-05-14T21:11:12.968Z,15.00
2023-05-14T21:13:39.908Z,15.00
2023-05-14T21:16:07.477Z,14.90
2023-05-14T21:18:34.528Z,14.90
2023-05-14T21:21:01.543Z,14.90
2023-05-14T21:23:28.596Z,14.80
2023-05-14T21:25:55.758Z,14.80
2023-05-14T21:28:23.014Z,14.80
2023-05-14T21:30:51.248Z,14.70
2023-05-14T21:33:18.617Z,14.70
2023-05-14T21:35:45.615Z,14.70
2023-05-14T21:38:12.634Z,14.60
2023-05-14T21:40:39.615Z,14.70
2023-05-14T21:43:06.838Z,14.60
2023-05-14T21:45:35.265Z,14.60
2023-05-14T21:48:02.347Z,14.50
2023-05-14T21:52:56.963Z,14.30
2023-05-14T21:55:24.404Z,14.30
2023-05-14T21:57:51.809Z,14.30
2023-05-14T22:00:23.479Z,14.20
2023-05-14T22:02:52.595Z,14.10
2023-05-14T22:05:20.698Z,14.00
2023-05-14T22:07:48.778Z,14.10
2023-05-14T22:10:16.679Z,14.00
2023-05-14T22:12:45.164Z,14.00
2023-05-14T22:15:12.823Z,13.90
2023-05-14T22:17:39.931Z,13.90
2023-05-14T22:20:07.747Z,13.90
2023-05-14T22:22:34.979Z,13.90
2023-05-14T22:25:24.814Z,13.90
2023-05-14T22:27:52.145Z,13.90
2023-05-14T22:30:19.654Z,13.90
2023-05-14T22:40:10.677Z,13.90
2023-05-14T22:45:05.796Z,13.80
2023-05-14T22:47:32.828Z,13.80
2023-05-14T22:49:59.896Z,13.70
2023-05-14T22:52:27.016Z,13.70
2023-05-14T22:54:54.559Z,13.70
2023-05-14T22:57:21.919Z,13.70
2023-05-14T23:02:16.427Z,13.50
2023-05-14T23:07:10.908Z,13.50
2023-05-14T23:09:37.864Z,13.50
2023-05-14T23:12:05.444Z,13.50
2023-05-14T23:14:32.452Z,13.60
2023-05-14T23:16:59.669Z,13.50
2023-05-14T23:19:26.715Z,13.50
2023-05-14T23:21:53.735Z,13.50
2023-05-14T23:24:20.786Z,13.50
2023-05-14T23:26:47.886Z,13.50
2023-05-14T23:29:14.935Z,13.40
2023-05-14T23:31:43.639Z,13.40
2023-05-14T23:34:10.954Z,13.40
2023-05-14T23:36:39.756Z,13.40
2023-05-14T23:39:06.818Z,13.40
2023-05-14T23:41:33.744Z,13.30
2023-05-14T23:44:00.851Z,13.30
2023-05-14T23:46:28.222Z,13.30
2023-05-14T23:48:57.174Z,13.20
2023-05-14T23:51:24.752Z,13.30
2023-05-14T23:53:56.329Z,13.20
2023-05-14T23:56:29.186Z,13.20
2023-05-14T23:58:56.804Z,13.20
